createdAt,value
2023-03-18T00:00:34.163Z,4.70
2023-03-18T00:01:37.978Z,4.60
2023-03-18T00:02:42.311Z,4.60
2023-03-18T00:03:46.799Z,4.60
2023-03-18T00:04:50.005Z,4.60
2023-03-18T00:05:53.530Z,4.60
2023-03-18T00:06:56.373Z,4.60
2023-03-18T00:08:00.493Z,5.60
2023-03-18T00:09:03.089Z,4.60
2023-03-18T00:10:10.261Z,4.60
2023-03-18T00:11:14.682Z,2.40
2023-03-18T00:12:18.600Z,4.60
2023-03-18T00:13:22.192Z,4.60
2023-03-18T00:14:28.102Z,4.60
2023-03-18T00:15:31.854Z,4.50
2023-03-18T00:16:35.574Z,4.50
2023-03-18T00:17:40.509Z,2.30
2023-03-18T00:18:44.762Z,4.50
2023-03-18T00:19:48.625Z,4.60
2023-03-18T00:21:01.406Z,4.50
2023-03-18T00:22:04.281Z,4.50
2023-03-18T00:23:09.828Z,4.50
2023-03-18T00:24:12.607Z,4.50
2023-03-18T00:25:16.923Z,4.50
2023-03-18T00:26:19.514Z,4.40
2023-03-18T00:27:23.117Z,4.40
2023-03-18T00:28:27.104Z,4.40
2023-03-18T00:29:32.031Z,4.50
2023-03-18T00:30:38.134Z,4.50
2023-03-18T00:31:41.845Z,4.40
2023-03-18T00:32:44.490Z,4.40
2023-03-18T00:33:50.360Z,4.40
2023-03-18T00:34:56.995Z,4.50
2023-03-18T00:36:00.863Z,4.50
2023-03-18T00:37:04.030Z,4.40
2023-03-18T00:38:10.294Z,4.40
2023-03-18T00:39:13.481Z,4.40
2023-03-18T00:40:20.647Z,3.90
2023-03-18T00:41:26.229Z,4.40
2023-03-18T00:42:36.411Z,4.30
2023-03-18T00:43:46.970Z,4.30
2023-03-18T00:44:52.581Z,4.30
2023-03-18T00:45:56.584Z,4.30
2023-03-18T00:47:00.654Z,4.40
2023-03-18T00:48:04.178Z,4.40
2023-03-18T00:49:09.850Z,4.40
2023-03-18T00:50:16.298Z,4.40
2023-03-18T00:51:21.718Z,4.30
2023-03-18T00:52:24.665Z,4.30
2023-03-18T00:53:28.324Z,3.90
2023-03-18T00:54:30.865Z,4.40
2023-03-18T00:55:35.287Z,4.30
2023-03-18T00:56:39.677Z,4.30
2023-03-18T00:57:43.465Z,4.30
2023-03-18T00:58:47.889Z,4.30
2023-03-18T00:59:51.873Z,4.30
2023-03-18T01:00:57.621Z,4.30
2023-03-18T01:02:00.413Z,4.30
2023-03-18T01:03:04.732Z,4.30
2023-03-18T01:04:08.608Z,4.40
2023-03-18T01:05:14.380Z,4.40
2023-03-18T01:06:20.794Z,4.30
2023-03-18T01:07:25.233Z,3.70
2023-03-18T01:08:27.864Z,4.30
2023-03-18T01:09:32.328Z,4.30
2023-03-18T01:10:34.827Z,4.30
2023-03-18T01:11:39.747Z,4.30
2023-03-18T01:12:43.161Z,4.30
2023-03-18T01:13:47.775Z,4.40
2023-03-18T01:14:52.612Z,4.20
2023-03-18T01:15:56.590Z,4.20
2023-03-18T01:16:59.439Z,4.20
2023-03-18T01:18:04.310Z,4.20
2023-03-18T01:19:07.100Z,4.30
2023-03-18T01:20:13.513Z,4.20
2023-03-18T01:21:17.300Z,4.20
2023-03-18T01:22:26.921Z,4.30
2023-03-18T01:23:30.353Z,4.30
2023-03-18T01:24:33.876Z,4.30
2023-03-18T01:25:36.641Z,4.20
2023-03-18T01:26:40.561Z,4.30
2023-03-18T01:27:43.341Z,4.20
2023-03-18T01:28:49.742Z,4.40
2023-03-18T01:29:53.835Z,4.30
2023-03-18T01:31:00.477Z,5.50
2023-03-18T01:32:03.291Z,4.30
2023-03-18T01:33:08.850Z,4.30
2023-03-18T01:34:12.528Z,4.30
2023-03-18T01:35:25.712Z,4.30
2023-03-18T01:36:28.812Z,4.40
2023-03-18T01:37:44.097Z,4.30
2023-03-18T01:38:48.971Z,4.40
2023-03-18T01:39:53.666Z,4.30
2023-03-18T01:41:00.418Z,4.30
2023-03-18T01:42:05.716Z,4.30
2023-03-18T01:43:16.227Z,3.10
2023-03-18T01:44:24.799Z,4.20
2023-03-18T01:45:32.425Z,4.20
2023-03-18T01:46:40.243Z,4.10
2023-03-18T01:47:44.338Z,4.10
2023-03-18T01:48:52.416Z,4.10
2023-03-18T01:49:55.082Z,4.10
2023-03-18T01:51:04.309Z,4.10
2023-03-18T01:52:15.770Z,4.10
2023-03-18T01:53:22.884Z,4.10
2023-03-18T01:54:29.514Z,4.10
2023-03-18T01:55:35.514Z,4.20
2023-03-18T01:56:41.489Z,4.30
2023-03-18T01:57:47.075Z,4.20
2023-03-18T01:58:54.450Z,4.20
2023-03-18T01:59:59.481Z,4.20
2023-03-18T02:01:07.609Z,5.30
2023-03-18T02:02:14.629Z,4.10
2023-03-18T02:03:19.558Z,4.10
2023-03-18T02:04:29.464Z,4.10
2023-03-18T02:05:32.326Z,4.10
2023-03-18T02:06:36.288Z,4.20
2023-03-18T02:07:43.004Z,4.70
2023-03-18T02:08:47.976Z,4.10
2023-03-18T02:09:52.675Z,4.10
2023-03-18T02:10:58.505Z,4.10
2023-03-18T02:12:02.613Z,4.10
2023-03-18T02:13:10.235Z,3.80
2023-03-18T02:14:19.307Z,4.10
2023-03-18T02:15:28.632Z,4.10
2023-03-18T02:16:36.547Z,4.10
2023-03-18T02:17:46.499Z,4.10
2023-03-18T02:18:54.780Z,4.20
2023-03-18T02:20:11.484Z,4.10
2023-03-18T02:21:33.689Z,4.10
2023-03-18T02:22:41.717Z,4.10
2023-03-18T02:23:54.091Z,4.10
2023-03-18T02:25:20.093Z,4.00
2023-03-18T02:26:41.046Z,4.10
2023-03-18T02:27:51.143Z,4.10
2023-03-18T02:29:02.442Z,4.00
2023-03-18T02:30:13.684Z,3.90
2023-03-18T02:31:22.787Z,3.90
2023-03-18T02:32:28.749Z,3.90
2023-03-18T02:33:38.926Z,3.90
2023-03-18T02:34:47.559Z,3.90
2023-03-18T02:36:03.235Z,3.90
2023-03-18T02:37:09.127Z,4.00
2023-03-18T02:38:14.237Z,4.00
2023-03-18T02:39:18.750Z,4.00
2023-03-18T02:40:28.717Z,4.10
2023-03-18T02:41:36.076Z,4.00
2023-03-18T02:42:39.343Z,4.00
2023-03-18T02:43:44.887Z,4.00
2023-03-18T02:44:49.734Z,4.00
2023-03-18T02:46:36.647Z,3.20
2023-03-18T02:47:42.753Z,4.10
2023-03-18T02:48:47.853Z,4.00
2023-03-18T02:49:51.717Z,5.10
2023-03-18T02:50:57.826Z,6.10
2023-03-18T02:52:00.913Z,4.00
2023-03-18T02:53:06.852Z,4.00
2023-03-18T02:54:12.558Z,4.00
2023-03-18T02:55:17.016Z,6.50
2023-03-18T02:56:22.278Z,4.00
2023-03-18T02:57:26.387Z,4.10
2023-03-18T02:58:29.446Z,4.00
2023-03-18T02:59:37.298Z,5.40
2023-03-18T03:00:39.819Z,1.60
2023-03-18T03:01:46.756Z,3.90
2023-03-18T03:02:49.559Z,3.90
2023-03-18T03:03:53.413Z,3.90
2023-03-18T03:04:56.597Z,3.90
2023-03-18T03:06:01.926Z,3.80
2023-03-18T03:07:04.542Z,3.90
2023-03-18T03:08:19.936Z,3.90
2023-03-18T03:09:23.484Z,3.90
2023-03-18T03:10:27.490Z,3.90
2023-03-18T03:11:38.337Z,3.80
2023-03-18T03:12:49.443Z,3.80
2023-03-18T03:13:53.825Z,3.80
2023-03-18T03:14:59.217Z,3.90
2023-03-18T03:16:06.274Z,3.80
2023-03-18T03:17:10.854Z,3.80
2023-03-18T03:18:13.796Z,3.70
2023-03-18T03:19:18.156Z,3.70
2023-03-18T03:20:21.696Z,3.70
2023-03-18T03:21:25.367Z,3.70
2023-03-18T03:22:28.562Z,3.70
2023-03-18T03:23:32.799Z,3.70
2023-03-18T03:24:35.484Z,3.70
2023-03-18T03:25:40.354Z,3.70
2023-03-18T03:26:42.943Z,3.70
2023-03-18T03:27:48.617Z,3.70
2023-03-18T03:28:51.666Z,3.70
2023-03-18T03:29:59.687Z,3.80
2023-03-18T03:31:03.009Z,3.80
2023-03-18T03:32:07.428Z,2.80
2023-03-18T03:33:11.261Z,3.70
2023-03-18T03:34:17.213Z,3.80
2023-03-18T03:35:21.203Z,3.80
2023-03-18T03:36:24.887Z,3.80
2023-03-18T03:37:27.459Z,3.90
2023-03-18T03:38:31.153Z,3.90
2023-03-18T03:39:34.305Z,3.80
2023-03-18T03:40:38.883Z,3.80
2023-03-18T03:41:41.341Z,3.70
2023-03-18T03:42:45.292Z,3.70
2023-03-18T03:43:47.770Z,3.70
2023-03-18T03:44:51.462Z,3.80
2023-03-18T03:45:55.902Z,4.90
2023-03-18T03:47:00.178Z,3.70
2023-03-18T03:48:02.758Z,3.80
2023-03-18T03:49:06.870Z,3.70
2023-03-18T03:50:11.804Z,3.70
2023-03-18T03:51:16.420Z,3.70
2023-03-18T03:52:20.056Z,3.70
2023-03-18T03:53:25.859Z,3.70
2023-03-18T03:54:28.664Z,3.10
2023-03-18T03:55:35.613Z,3.70
2023-03-18T03:56:41.414Z,3.70
2023-03-18T03:57:45.980Z,4.80
2023-03-18T03:58:48.323Z,3.70
2023-03-18T03:59:52.591Z,3.70
2023-03-18T04:00:59.974Z,3.70
2023-03-18T04:02:03.742Z,3.70
2023-03-18T04:03:06.472Z,3.60
2023-03-18T04:04:10.313Z,3.60
2023-03-18T04:05:17.029Z,3.70
2023-03-18T04:06:21.244Z,3.70
2023-03-18T04:07:33.126Z,3.70
2023-03-18T04:08:37.059Z,3.70
2023-03-18T04:09:39.553Z,3.70
2023-03-18T04:10:43.515Z,3.30
2023-03-18T04:11:46.827Z,3.80
2023-03-18T04:12:51.975Z,3.90
2023-03-18T04:13:54.712Z,3.70
2023-03-18T04:14:58.392Z,3.70
2023-03-18T04:16:03.719Z,2.90
2023-03-18T04:17:06.695Z,3.70
2023-03-18T04:18:10.818Z,3.70
2023-03-18T04:19:14.251Z,5.10
2023-03-18T04:20:19.082Z,3.70
2023-03-18T04:21:22.534Z,3.70
2023-03-18T04:22:29.869Z,3.70
2023-03-18T04:23:33.549Z,3.60
2023-03-18T04:24:37.643Z,3.80
2023-03-18T04:25:40.542Z,3.70
2023-03-18T04:26:44.111Z,3.70
2023-03-18T04:27:52.647Z,3.60
2023-03-18T04:28:56.970Z,3.60
2023-03-18T04:29:59.476Z,3.70
2023-03-18T04:31:13.718Z,3.80
2023-03-18T04:32:16.756Z,3.70
2023-03-18T04:33:21.220Z,3.70
2023-03-18T04:34:24.186Z,3.70
2023-03-18T04:35:29.379Z,3.70
2023-03-18T04:36:32.980Z,3.60
2023-03-18T04:37:37.431Z,3.60
2023-03-18T04:38:45.613Z,3.70
2023-03-18T04:39:49.270Z,4.80
2023-03-18T04:40:52.799Z,3.60
2023-03-18T04:41:57.095Z,3.60
2023-03-18T04:43:00.848Z,5.70
2023-03-18T04:44:05.046Z,3.60
2023-03-18T04:45:25.074Z,3.70
2023-03-18T04:46:34.553Z,3.10
2023-03-18T04:47:39.113Z,5.50
2023-03-18T04:48:42.218Z,3.70
2023-03-18T04:49:46.507Z,3.70
2023-03-18T04:50:51.168Z,3.70
2023-03-18T04:52:00.348Z,3.70
2023-03-18T04:53:06.946Z,3.60
2023-03-18T04:54:12.647Z,3.70
2023-03-18T04:55:16.548Z,3.60
2023-03-18T04:56:21.158Z,3.70
2023-03-18T04:57:28.600Z,3.70
2023-03-18T04:58:33.162Z,3.70
2023-03-18T04:59:53.894Z,2.80
2023-03-18T05:00:57.982Z,3.60
2023-03-18T05:02:09.253Z,3.70
2023-03-18T05:03:14.480Z,3.80
2023-03-18T05:04:17.125Z,3.90
2023-03-18T05:05:26.014Z,4.00
2023-03-18T05:06:31.724Z,2.10
2023-03-18T05:07:42.438Z,4.00
2023-03-18T05:08:49.054Z,4.10
2023-03-18T05:09:52.613Z,4.10
2023-03-18T05:10:55.223Z,4.20
2023-03-18T05:11:59.259Z,4.20
2023-03-18T05:13:11.697Z,4.20
2023-03-18T05:14:15.713Z,4.40
2023-03-18T05:15:22.259Z,4.70
2023-03-18T05:16:31.270Z,4.90
2023-03-18T05:17:36.360Z,5.00
2023-03-18T05:18:42.647Z,5.10
2023-03-18T05:19:49.110Z,5.10
2023-03-18T05:20:55.684Z,5.20
2023-03-18T05:22:01.043Z,5.40
2023-03-18T05:23:04.787Z,5.70
2023-03-18T05:24:17.462Z,6.00
2023-03-18T05:25:20.556Z,6.40
2023-03-18T05:26:24.909Z,6.80
2023-03-18T05:27:28.634Z,7.10
2023-03-18T05:28:43.345Z,7.60
2023-03-18T05:30:19.695Z,8.60
2023-03-18T05:31:26.055Z,8.20
2023-03-18T05:32:31.699Z,8.60
2023-03-18T05:33:42.728Z,7.70
2023-03-18T05:34:48.460Z,8.90
2023-03-18T05:35:51.815Z,8.80
2023-03-18T05:36:59.482Z,8.60
2023-03-18T05:38:02.966Z,8.30
2023-03-18T05:39:08.817Z,7.90
2023-03-18T05:40:12.918Z,7.60
2023-03-18T05:41:20.858Z,7.40
2023-03-18T05:42:23.280Z,7.10
2023-03-18T05:43:28.721Z,6.90
2023-03-18T05:44:34.041Z,6.80
2023-03-18T05:45:40.418Z,6.70
2023-03-18T05:46:46.345Z,6.70
2023-03-18T05:47:58.820Z,6.80
2023-03-18T05:49:03.957Z,6.90
2023-03-18T05:50:20.093Z,6.80
2023-03-18T05:51:24.618Z,6.90
2023-03-18T05:52:28.696Z,6.80
2023-03-18T05:53:35.204Z,6.80
2023-03-18T05:54:48.471Z,6.80
2023-03-18T05:55:56.682Z,6.80
2023-03-18T05:57:01.889Z,6.90
2023-03-18T05:58:06.217Z,7.50
2023-03-18T05:59:11.611Z,7.00
2023-03-18T06:00:22.050Z,7.10
2023-03-18T06:01:27.287Z,8.00
2023-03-18T06:02:32.903Z,7.00
2023-03-18T06:03:36.424Z,7.10
2023-03-18T06:04:40.509Z,6.60
2023-03-18T06:05:45.465Z,7.20
2023-03-18T06:06:49.749Z,7.10
2023-03-18T06:07:55.060Z,7.30
2023-03-18T06:08:58.820Z,6.20
2023-03-18T06:10:03.196Z,7.40
2023-03-18T06:11:05.957Z,7.50
2023-03-18T06:12:10.392Z,7.50
2023-03-18T06:13:13.041Z,7.40
2023-03-18T06:14:17.482Z,7.40
2023-03-18T06:15:21.618Z,5.80
2023-03-18T06:16:26.515Z,7.70
2023-03-18T06:17:31.612Z,7.80
2023-03-18T06:18:35.332Z,7.60
2023-03-18T06:19:38.456Z,7.70
2023-03-18T06:20:43.439Z,7.60
2023-03-18T06:21:47.754Z,9.60
2023-03-18T06:22:50.514Z,7.50
2023-03-18T06:23:54.434Z,7.50
2023-03-18T06:24:58.878Z,7.60
2023-03-18T06:26:02.581Z,7.80
2023-03-18T06:27:11.286Z,7.90
2023-03-18T06:28:18.684Z,7.90
2023-03-18T06:29:21.279Z,8.10
2023-03-18T06:30:25.407Z,8.10
2023-03-18T06:31:28.018Z,8.10
2023-03-18T06:32:33.317Z,8.10
2023-03-18T06:33:36.807Z,8.10
2023-03-18T06:34:42.563Z,8.10
2023-03-18T06:35:48.573Z,8.10
2023-03-18T06:36:53.518Z,7.80
2023-03-18T06:37:56.589Z,7.80
2023-03-18T06:39:01.375Z,7.80
2023-03-18T06:40:06.450Z,7.80
2023-03-18T06:41:13.533Z,7.90
2023-03-18T06:42:29.237Z,7.90
2023-03-18T06:43:59.210Z,7.80
2023-03-18T06:45:06.648Z,7.70
2023-03-18T06:46:30.436Z,7.70
2023-03-18T06:47:40.293Z,7.50
2023-03-18T06:48:43.871Z,7.50
2023-03-18T06:49:50.926Z,7.60
2023-03-18T06:51:03.992Z,7.70
2023-03-18T06:52:11.993Z,7.90
2023-03-18T06:53:18.964Z,7.90
2023-03-18T06:54:23.346Z,8.00
2023-03-18T06:55:28.125Z,8.10
2023-03-18T06:56:34.699Z,8.10
2023-03-18T06:57:46.904Z,8.20
2023-03-18T06:58:54.488Z,8.30
2023-03-18T06:59:57.454Z,10.60
2023-03-18T07:01:01.553Z,8.20
2023-03-18T07:02:10.993Z,8.10
2023-03-18T07:03:15.897Z,8.10
2023-03-18T07:04:19.250Z,8.00
2023-03-18T07:05:23.112Z,8.10
2023-03-18T07:06:27.318Z,8.10
2023-03-18T07:07:31.764Z,6.70
2023-03-18T07:08:34.725Z,8.20
2023-03-18T07:09:39.350Z,8.10
2023-03-18T07:10:42.656Z,8.10
2023-03-18T07:11:50.302Z,8.90
2023-03-18T07:12:58.700Z,8.30
2023-03-18T07:14:02.294Z,8.30
2023-03-18T07:15:11.890Z,6.50
2023-03-18T07:16:14.996Z,8.30
2023-03-18T07:17:18.833Z,7.90
2023-03-18T07:18:21.979Z,8.10
2023-03-18T07:19:26.184Z,8.10
2023-03-18T07:20:30.015Z,8.20
2023-03-18T07:21:35.470Z,8.20
2023-03-18T07:22:39.048Z,8.10
2023-03-18T07:23:42.784Z,8.10
2023-03-18T07:24:46.335Z,8.10
2023-03-18T07:25:51.631Z,8.10
2023-03-18T07:26:55.709Z,8.10
2023-03-18T07:28:01.253Z,6.80
2023-03-18T07:29:04.600Z,8.40
2023-03-18T07:30:10.134Z,8.20
2023-03-18T07:31:14.368Z,8.60
2023-03-18T07:32:19.149Z,8.50
2023-03-18T07:33:23.173Z,8.70
2023-03-18T07:34:25.710Z,8.80
2023-03-18T07:35:30.302Z,9.00
2023-03-18T07:36:34.547Z,9.30
2023-03-18T07:37:38.240Z,9.40
2023-03-18T07:38:40.877Z,9.50
2023-03-18T07:39:44.627Z,9.40
2023-03-18T07:40:48.468Z,9.30
2023-03-18T07:41:52.161Z,9.20
2023-03-18T07:42:59.240Z,9.20
2023-03-18T07:44:03.438Z,9.20
2023-03-18T07:45:08.311Z,9.20
2023-03-18T07:46:10.966Z,9.10
2023-03-18T07:47:15.747Z,8.00
2023-03-18T07:48:19.658Z,9.00
2023-03-18T07:49:26.185Z,8.80
2023-03-18T07:50:31.837Z,10.80
2023-03-18T07:51:36.700Z,8.80
2023-03-18T07:52:39.499Z,8.80
2023-03-18T07:53:43.657Z,8.90
2023-03-18T07:54:46.953Z,9.70
2023-03-18T07:55:51.257Z,9.00
2023-03-18T07:56:54.546Z,9.00
2023-03-18T07:57:58.680Z,9.00
2023-03-18T07:59:01.479Z,9.00
2023-03-18T08:00:06.521Z,9.10
2023-03-18T08:01:16.584Z,9.20
2023-03-18T08:02:22.111Z,7.90
2023-03-18T08:03:24.541Z,9.30
2023-03-18T08:04:28.765Z,9.30
2023-03-18T08:05:32.397Z,9.30
2023-03-18T08:06:40.082Z,9.30
2023-03-18T08:07:43.085Z,9.30
2023-03-18T08:08:46.567Z,11.30
2023-03-18T08:09:50.797Z,9.00
2023-03-18T08:10:58.758Z,9.60
2023-03-18T08:12:02.346Z,9.60
2023-03-18T08:13:04.794Z,9.70
2023-03-18T08:14:08.387Z,9.70
2023-03-18T08:15:13.355Z,9.80
2023-03-18T08:16:16.035Z,9.90
2023-03-18T08:17:19.798Z,10.00
2023-03-18T08:18:22.571Z,10.10
2023-03-18T08:19:27.436Z,10.20
2023-03-18T08:20:30.729Z,10.30
2023-03-18T08:21:34.634Z,10.40
2023-03-18T08:22:39.205Z,10.50
2023-03-18T08:23:43.183Z,10.60
2023-03-18T08:24:51.466Z,10.60
2023-03-18T08:25:57.240Z,10.50
2023-03-18T08:27:01.123Z,10.40
2023-03-18T08:28:03.515Z,10.30
2023-03-18T08:29:07.500Z,10.30
2023-03-18T08:30:11.298Z,10.40
2023-03-18T08:31:18.303Z,10.50
2023-03-18T08:32:22.014Z,10.60
2023-03-18T08:33:27.863Z,10.60
2023-03-18T08:34:30.849Z,10.60
2023-03-18T08:35:35.000Z,10.60
2023-03-18T08:36:38.470Z,10.50
2023-03-18T08:37:43.810Z,9.50
2023-03-18T08:38:46.770Z,10.40
2023-03-18T08:39:50.497Z,10.40
2023-03-18T08:40:53.210Z,10.30
2023-03-18T08:41:57.864Z,10.50
2023-03-18T08:43:00.593Z,10.50
2023-03-18T08:44:06.626Z,10.70
2023-03-18T08:45:11.143Z,10.80
2023-03-18T08:46:15.900Z,11.00
2023-03-18T08:47:20.027Z,11.20
2023-03-18T08:48:24.148Z,9.20
2023-03-18T08:49:28.031Z,11.40
2023-03-18T08:50:30.709Z,12.50
2023-03-18T08:51:34.372Z,12.40
2023-03-18T08:52:38.647Z,11.20
2023-03-18T08:53:43.700Z,11.20
2023-03-18T08:54:46.515Z,11.20
2023-03-18T08:55:50.203Z,11.30
2023-03-18T08:56:53.173Z,11.30
2023-03-18T08:57:56.950Z,11.20
2023-03-18T08:58:59.547Z,11.30
2023-03-18T09:00:03.204Z,11.20
2023-03-18T09:01:06.254Z,11.20
2023-03-18T09:02:17.153Z,11.00
2023-03-18T09:03:19.610Z,10.90
2023-03-18T09:04:24.979Z,10.90
2023-03-18T09:05:27.620Z,11.50
2023-03-18T09:06:31.741Z,9.10
2023-03-18T09:07:34.674Z,10.80
2023-03-18T09:08:39.617Z,9.70
2023-03-18T09:09:44.484Z,10.90
2023-03-18T09:10:49.047Z,10.90
2023-03-18T09:11:51.505Z,10.90
2023-03-18T09:12:54.994Z,10.90
2023-03-18T09:13:57.377Z,10.90
2023-03-18T09:15:02.326Z,11.00
2023-03-18T09:16:05.509Z,11.00
2023-03-18T09:17:09.262Z,11.10
2023-03-18T09:18:13.883Z,11.10
2023-03-18T09:19:17.295Z,11.10
2023-03-18T09:20:19.829Z,11.10
2023-03-18T09:21:23.468Z,11.10
2023-03-18T09:22:25.953Z,11.00
2023-03-18T09:23:29.690Z,11.00
2023-03-18T09:24:32.145Z,10.00
2023-03-18T09:25:37.117Z,11.00
2023-03-18T09:26:39.607Z,11.10
2023-03-18T09:27:43.944Z,11.20
2023-03-18T09:28:47.785Z,11.30
2023-03-18T09:29:50.727Z,11.30
2023-03-18T09:30:55.843Z,9.00
2023-03-18T09:31:59.023Z,11.30
2023-03-18T09:33:02.877Z,11.30
2023-03-18T09:34:05.818Z,11.20
2023-03-18T09:35:12.947Z,11.20
2023-03-18T09:36:16.637Z,11.00
2023-03-18T09:37:20.080Z,11.00
2023-03-18T09:38:23.857Z,11.00
2023-03-18T09:39:27.324Z,11.10
2023-03-18T09:40:33.044Z,11.20
2023-03-18T09:41:53.387Z,11.20
2023-03-18T09:43:13.239Z,11.20
2023-03-18T09:44:25.475Z,11.10
2023-03-18T09:45:35.025Z,9.70
2023-03-18T09:46:57.226Z,11.10
2023-03-18T09:48:49.703Z,11.30
2023-03-18T09:50:24.525Z,11.40
2023-03-18T09:51:46.876Z,11.50
2023-03-18T09:53:00.508Z,11.40
2023-03-18T09:54:10.485Z,11.40
2023-03-18T09:55:23.961Z,11.30
2023-03-18T09:56:32.333Z,11.20
2023-03-18T09:57:42.885Z,11.20
2023-03-18T09:58:54.312Z,11.10
2023-03-18T10:00:05.595Z,11.10
2023-03-18T10:01:15.838Z,9.90
2023-03-18T10:02:26.770Z,11.00
2023-03-18T10:03:37.983Z,10.80
2023-03-18T10:04:46.760Z,11.00
2023-03-18T10:05:56.836Z,11.10
2023-03-18T10:07:07.338Z,11.40
2023-03-18T10:08:19.970Z,11.30
2023-03-18T10:09:30.499Z,11.40
2023-03-18T10:10:39.225Z,11.30
2023-03-18T10:11:47.457Z,11.30
2023-03-18T10:13:01.292Z,11.30
2023-03-18T10:14:36.246Z,11.50
2023-03-18T10:15:46.638Z,11.60
2023-03-18T10:17:08.154Z,11.70
2023-03-18T10:18:19.098Z,11.80
2023-03-18T10:19:22.295Z,11.90
2023-03-18T10:20:37.788Z,11.90
2023-03-18T10:21:49.647Z,11.40
2023-03-18T10:23:06.799Z,12.20
2023-03-18T10:24:27.890Z,12.20
2023-03-18T10:25:39.074Z,12.20
2023-03-18T10:26:46.811Z,12.20
2023-03-18T10:28:07.512Z,12.00
2023-03-18T10:29:33.703Z,11.80
2023-03-18T10:30:51.717Z,11.70
2023-03-18T10:32:09.355Z,11.70
2023-03-18T10:33:23.283Z,11.60
2023-03-18T10:34:41.418Z,11.60
2023-03-18T10:35:55.861Z,11.00
2023-03-18T10:37:07.202Z,11.70
2023-03-18T10:38:22.314Z,11.70
2023-03-18T10:39:29.514Z,11.70
2023-03-18T10:40:38.195Z,11.70
2023-03-18T10:41:43.714Z,11.70
2023-03-18T10:42:47.651Z,11.80
2023-03-18T10:43:56.336Z,9.40
2023-03-18T10:45:17.462Z,12.90
2023-03-18T10:46:23.433Z,11.90
2023-03-18T10:47:33.792Z,12.00
2023-03-18T10:48:43.250Z,12.00
2023-03-18T10:50:00.068Z,12.10
2023-03-18T10:51:17.297Z,12.10
2023-03-18T10:52:31.186Z,10.60
2023-03-18T10:53:41.544Z,12.10
2023-03-18T10:54:50.699Z,11.90
2023-03-18T10:56:03.175Z,11.80
2023-03-18T10:57:06.906Z,11.90
2023-03-18T10:58:16.762Z,12.00
2023-03-18T10:59:26.081Z,12.10
2023-03-18T11:00:33.347Z,12.20
2023-03-18T11:01:39.706Z,12.40
2023-03-18T11:02:42.860Z,12.50
2023-03-18T11:03:51.829Z,12.60
2023-03-18T11:04:58.558Z,12.70
2023-03-18T11:06:04.787Z,12.70
2023-03-18T11:07:17.326Z,12.80
2023-03-18T11:08:34.574Z,12.80
2023-03-18T11:09:39.614Z,12.90
2023-03-18T11:10:48.334Z,12.90
2023-03-18T11:11:57.495Z,12.90
2023-03-18T11:13:02.497Z,12.80
2023-03-18T11:14:08.334Z,12.80
2023-03-18T11:15:14.710Z,12.70
2023-03-18T11:16:30.787Z,12.70
2023-03-18T11:17:37.307Z,12.60
2023-03-18T11:18:46.651Z,12.70
2023-03-18T11:20:01.309Z,11.90
2023-03-18T11:21:13.238Z,12.80
2023-03-18T11:22:24.329Z,12.90
2023-03-18T11:23:46.518Z,13.00
2023-03-18T11:25:04.212Z,13.10
2023-03-18T11:26:09.399Z,13.20
2023-03-18T11:27:34.913Z,12.40
2023-03-18T11:28:42.609Z,13.20
2023-03-18T11:29:55.423Z,13.20
2023-03-18T11:31:08.041Z,13.20
2023-03-18T11:32:25.644Z,13.30
2023-03-18T11:33:33.155Z,13.20
2023-03-18T11:34:35.586Z,13.10
2023-03-18T11:35:44.745Z,13.00
2023-03-18T11:36:59.052Z,13.00
2023-03-18T11:38:05.813Z,14.00
2023-03-18T11:39:19.704Z,13.10
2023-03-18T11:40:29.796Z,13.10
2023-03-18T11:41:32.310Z,13.20
2023-03-18T11:42:40.510Z,13.00
2023-03-18T11:43:59.228Z,13.20
2023-03-18T11:45:08.793Z,13.20
2023-03-18T11:46:15.545Z,13.20
2023-03-18T11:47:24.397Z,13.30
2023-03-18T11:48:36.760Z,13.20
2023-03-18T11:49:39.808Z,12.60
2023-03-18T11:51:08.387Z,13.10
2023-03-18T11:52:33.969Z,13.20
2023-03-18T11:53:51.278Z,13.10
2023-03-18T11:55:12.188Z,13.10
2023-03-18T11:56:28.462Z,13.10
2023-03-18T11:57:46.661Z,14.30
2023-03-18T11:59:20.304Z,13.30
2023-03-18T12:00:34.486Z,10.80
2023-03-18T12:01:54.734Z,13.10
2023-03-18T12:03:28.839Z,13.00
2023-03-18T12:05:05.686Z,12.90
2023-03-18T12:06:21.434Z,12.80
2023-03-18T12:07:40.951Z,12.80
2023-03-18T12:09:01.104Z,12.90
2023-03-18T12:10:15.573Z,13.00
2023-03-18T12:11:33.171Z,13.20
2023-03-18T12:12:52.396Z,13.20
2023-03-18T12:14:06.646Z,13.40
2023-03-18T12:15:23.321Z,13.50
2023-03-18T12:16:45.263Z,13.50
2023-03-18T12:18:04.039Z,13.50
2023-03-18T12:19:29.494Z,12.80
2023-03-18T12:20:50.152Z,13.30
2023-03-18T12:22:25.150Z,14.10
2023-03-18T12:23:45.573Z,13.40
2023-03-18T12:25:07.501Z,13.30
2023-03-18T12:26:23.347Z,13.30
2023-03-18T12:27:42.145Z,13.30
2023-03-18T12:29:19.367Z,12.60
2023-03-18T12:30:46.232Z,13.10
2023-03-18T12:32:11.216Z,13.00
2023-03-18T12:33:34.191Z,13.00
2023-03-18T12:34:57.005Z,13.10
2023-03-18T12:36:14.425Z,13.20
2023-03-18T12:37:32.953Z,10.90
2023-03-18T12:38:59.878Z,13.10
2023-03-18T12:40:25.475Z,13.10
2023-03-18T12:41:40.989Z,13.20
2023-03-18T12:43:05.391Z,13.30
2023-03-18T12:44:23.722Z,13.30
2023-03-18T12:45:35.110Z,13.40
2023-03-18T12:46:47.278Z,13.40
2023-03-18T12:48:02.485Z,13.10
2023-03-18T12:49:16.537Z,13.50
2023-03-18T12:50:25.656Z,13.40
2023-03-18T12:51:47.013Z,13.40
2023-03-18T12:52:58.481Z,14.80
2023-03-18T12:54:13.496Z,13.40
2023-03-18T12:55:23.140Z,13.50
2023-03-18T12:56:30.349Z,13.50
2023-03-18T12:57:45.467Z,13.50
2023-03-18T12:58:54.226Z,13.60
2023-03-18T13:00:10.829Z,13.60
2023-03-18T13:01:19.276Z,12.90
2023-03-18T13:02:43.681Z,13.50
2023-03-18T13:03:54.971Z,13.50
2023-03-18T13:05:02.864Z,12.90
2023-03-18T13:06:15.041Z,13.50
2023-03-18T13:07:27.982Z,13.50
2023-03-18T13:08:58.450Z,13.40
2023-03-18T13:10:15.832Z,13.40
2023-03-18T13:11:44.917Z,13.50
2023-03-18T13:12:54.737Z,13.60
2023-03-18T13:14:04.316Z,13.60
2023-03-18T13:15:22.691Z,13.60
2023-03-18T13:16:25.720Z,13.70
2023-03-18T13:17:34.244Z,13.70
2023-03-18T13:18:43.573Z,13.80
2023-03-18T13:19:48.759Z,13.80
2023-03-18T13:20:58.684Z,13.90
2023-03-18T13:22:27.611Z,15.20
2023-03-18T13:23:58.746Z,13.90
2023-03-18T13:25:14.220Z,13.90
2023-03-18T13:26:29.860Z,13.90
2023-03-18T13:28:00.942Z,13.90
2023-03-18T13:29:22.651Z,14.00
2023-03-18T13:30:43.528Z,14.00
2023-03-18T13:32:01.027Z,14.00
2023-03-18T13:33:38.691Z,13.90
2023-03-18T13:35:07.448Z,13.80
2023-03-18T13:36:25.017Z,13.90
2023-03-18T13:37:49.152Z,13.90
2023-03-18T13:39:10.356Z,14.00
2023-03-18T13:40:43.074Z,14.00
2023-03-18T13:42:17.212Z,14.20
2023-03-18T13:43:25.642Z,14.20
2023-03-18T13:44:39.578Z,14.20
2023-03-18T13:45:47.664Z,14.00
2023-03-18T13:46:59.170Z,14.90
2023-03-18T13:48:08.787Z,13.80
2023-03-18T13:49:23.008Z,13.70
2023-03-18T13:50:37.639Z,13.70
2023-03-18T13:51:54.180Z,13.40
2023-03-18T13:53:01.642Z,13.80
2023-03-18T13:54:14.376Z,13.80
2023-03-18T13:55:30.552Z,13.80
2023-03-18T13:56:46.805Z,13.70
2023-03-18T13:57:57.383Z,13.70
2023-03-18T13:59:05.904Z,13.70
2023-03-18T14:00:33.417Z,13.80
2023-03-18T14:01:49.651Z,13.60
2023-03-18T14:03:07.652Z,13.50
2023-03-18T14:04:31.885Z,13.30
2023-03-18T14:05:40.440Z,13.20
2023-03-18T14:06:54.433Z,12.00
2023-03-18T14:07:57.155Z,13.20
2023-03-18T14:09:34.933Z,13.20
2023-03-18T14:10:37.490Z,13.10
2023-03-18T14:11:50.327Z,13.00
2023-03-18T14:12:53.787Z,13.00
2023-03-18T14:14:00.701Z,13.00
2023-03-18T14:15:07.332Z,13.10
2023-03-18T14:16:11.850Z,13.10
2023-03-18T14:17:22.957Z,13.10
2023-03-18T14:18:29.129Z,13.10
2023-03-18T14:19:32.972Z,13.10
2023-03-18T14:20:43.172Z,13.10
2023-03-18T14:21:49.265Z,13.10
2023-03-18T14:22:55.003Z,13.10
2023-03-18T14:24:14.960Z,13.20
2023-03-18T14:25:39.127Z,13.20
2023-03-18T14:26:42.723Z,13.40
2023-03-18T14:27:47.695Z,12.00
2023-03-18T14:28:57.462Z,13.20
2023-03-18T14:30:37.692Z,13.10
2023-03-18T14:31:59.131Z,12.90
2023-03-18T14:33:03.885Z,12.90
2023-03-18T14:34:30.032Z,13.00
2023-03-18T14:35:35.635Z,13.10
2023-03-18T14:37:20.576Z,13.10
2023-03-18T14:38:28.134Z,13.20
2023-03-18T14:39:38.601Z,13.20
2023-03-18T14:40:47.438Z,13.30
2023-03-18T14:41:57.348Z,13.30
2023-03-18T14:43:03.848Z,15.00
2023-03-18T14:44:25.866Z,15.00
2023-03-18T14:45:36.295Z,13.50
2023-03-18T14:46:45.453Z,15.20
2023-03-18T14:47:52.501Z,13.50
2023-03-18T14:48:55.278Z,13.50
2023-03-18T14:50:07.215Z,13.50
2023-03-18T14:51:17.922Z,13.50
2023-03-18T14:52:30.605Z,13.40
2023-03-18T14:53:39.684Z,13.20
2023-03-18T14:54:45.592Z,12.40
2023-03-18T14:55:49.979Z,13.00
2023-03-18T14:56:54.601Z,13.00
2023-03-18T14:57:58.492Z,13.00
2023-03-18T14:59:01.648Z,13.00